Time;durP1;ratioP1;P1;durP2;ratioP2;P2;SDS_P1;SDS_P2;PMS_P1;PMS_P2;Temp;Humidity;BMP_temperature;BMP_pressure;BME280_temperature;BME280_humidity;BME280_pressure;Samples;Min_cycle;Max_cycle;Signal;HPM_P1;HPM_P2
2023/06/15 00:00:59;;;;;;;6.30;5.90;;;;;;;12.14;100.00;96953.88;4879321;28;20235;-66
2023/06/15 00:03:27;;;;;;;5.90;5.50;;;;;;;12.07;100.00;96946.88;4927248;28;20497;-66
2023/06/15 00:05:55;;;;;;;6.27;5.77;;;;;;;12.06;100.00;96946.09;4928392;28;20772;-65
2023/06/15 00:08:23;;;;;;;6.07;5.67;;;;;;;11.96;100.00;96945.63;4905636;28;20234;-64
2023/06/15 00:10:50;;;;;;;6.40;5.90;;;;;;;11.92;100.00;96957.63;4925978;28;20215;-64
2023/06/15 00:13:18;;;;;;;6.37;5.77;;;;;;;11.83;100.00;96952.50;4931483;28;20202;-65
2023/06/15 00:15:47;;;;;;;6.73;6.13;;;;;;;11.76;100.00;96943.69;4885843;28;20227;-67
2023/06/15 00:18:14;;;;;;;6.03;5.63;;;;;;;11.72;100.00;96951.22;4930434;28;20218;-67
2023/06/15 00:20:42;;;;;;;6.43;5.93;;;;;;;11.68;100.00;96949.97;4928512;28;20216;-66
2023/06/15 00:23:10;;;;;;;6.53;6.03;;;;;;;11.58;100.00;96938.91;4905326;28;20618;-64
2023/06/15 00:25:38;;;;;;;6.93;6.23;;;;;;;11.57;100.00;96946.06;4927352;28;20213;-66
2023/06/15 00:28:05;;;;;;;6.40;6.00;;;;;;;11.52;100.00;96945.81;4931587;28;20330;-66
2023/06/15 00:30:33;;;;;;;6.60;6.20;;;;;;;11.50;100.00;96942.53;4888601;28;22621;-65
2023/06/15 00:33:02;;;;;;;6.17;5.73;;;;;;;11.46;100.00;96951.91;4936891;28;20210;-65
2023/06/15 00:35:30;;;;;;;6.57;6.17;;;;;;;11.42;100.00;96946.19;4934841;28;20195;-65
2023/06/15 00:37:58;;;;;;;6.40;5.93;;;;;;;11.38;100.00;96946.75;4933019;28;20310;-66
2023/06/15 00:40:26;;;;;;;6.63;6.13;;;;;;;11.31;100.00;96943.25;4907045;28;20445;-65
2023/06/15 00:42:53;;;;;;;6.53;6.13;;;;;;;11.30;100.00;96947.72;4933705;28;20302;-65
2023/06/15 00:45:21;;;;;;;7.00;6.50;;;;;;;11.27;100.00;96948.94;4924702;28;20479;-63
2023/06/15 00:47:49;;;;;;;6.60;5.97;;;;;;;11.18;100.00;96942.16;4905750;28;20811;-63
2023/06/15 00:50:19;;;;;;;7.13;6.43;;;;;;;11.15;100.00;96948.66;4932057;28;20221;-66
2023/06/15 00:52:47;;;;;;;6.50;6.00;;;;;;;11.11;100.00;96944.75;4929269;28;20481;-65
2023/06/15 00:55:15;;;;;;;6.37;5.90;;;;;;;10.99;100.00;96936.50;4910226;28;20775;-66
2023/06/15 00:57:44;;;;;;;6.20;5.80;;;;;;;11.08;100.00;96945.13;4933444;28;20868;-64
2023/06/15 01:00:14;;;;;;;6.83;6.33;;;;;;;10.95;100.00;96945.03;4934745;28;20219;-66
2023/06/15 01:02:42;;;;;;;6.53;6.03;;;;;;;10.94;100.00;96946.03;4860160;28;20513;-68
2023/06/15 01:05:12;;;;;;;6.60;6.10;;;;;;;10.98;100.00;96945.47;4938586;28;20234;-67
2023/06/15 01:07:47;;;;;;;6.60;6.10;;;;;;;10.91;100.00;96941.13;4912184;28;20389;-65
2023/06/15 01:10:16;;;;;;;6.60;6.00;;;;;;;10.79;100.00;96930.22;4909199;28;20214;-64
2023/06/15 01:12:45;;;;;;;8.70;7.00;;;;;;;10.86;100.00;96941.72;4931173;28;20924;-65
2023/06/15 01:15:13;;;;;;;8.23;7.47;;;;;;;10.79;100.00;96935.50;4935647;28;20214;-65
2023/06/15 01:17:44;;;;;;;6.70;6.20;;;;;;;10.75;100.00;96934.25;4887025;28;20353;-67
2023/06/15 01:20:16;;;;;;;7.10;6.70;;;;;;;10.69;100.00;96925.25;4930273;28;20207;-67
2023/06/15 01:22:55;;;;;;;7.10;6.60;;;;;;;10.80;100.00;96939.84;4913772;28;20216;-67
2023/06/15 01:25:33;;;;;;;7.67;7.07;;;;;;;10.70;100.00;96926.91;4920275;28;20199;-67
2023/06/15 01:28:04;;;;;;;7.50;7.00;;;;;;;10.75;100.00;96942.22;4936821;28;20575;-68
2023/06/15 01:30:35;;;;;;;7.27;6.73;;;;;;;10.66;100.00;96928.28;4893710;28;20286;-66
2023/06/15 01:33:03;;;;;;;8.03;7.47;;;;;;;10.73;100.00;96929.16;4933996;28;20282;-67
2023/06/15 01:35:30;;;;;;;7.30;6.80;;;;;;;10.69;100.00;96933.22;4928894;28;20629;-65
2023/06/15 01:37:58;;;;;;;7.80;7.20;;;;;;;10.66;100.00;96934.41;4916617;28;20633;-65
2023/06/15 01:40:26;;;;;;;7.77;7.17;;;;;;;10.63;100.00;96936.63;4927203;28;20245;-68
2023/06/15 01:42:54;;;;;;;7.40;6.83;;;;;;;10.64;100.00;96928.47;4913607;28;20622;-67
2023/06/15 01:45:23;;;;;;;7.53;6.97;;;;;;;10.60;100.00;96927.22;4931984;28;20254;-67
2023/06/15 01:47:51;;;;;;;7.80;7.30;;;;;;;10.65;100.00;96929.31;4883498;28;20787;-66
2023/06/15 01:50:20;;;;;;;8.23;7.63;;;;;;;10.60;100.00;96916.63;4932925;28;20242;-66
2023/06/15 01:52:48;;;;;;;8.53;7.90;;;;;;;10.55;100.00;96921.66;4927350;28;20211;-66
2023/06/15 01:55:15;;;;;;;7.20;6.70;;;;;;;10.58;100.00;96926.59;4916994;28;20230;-65
2023/06/15 01:57:43;;;;;;;8.47;7.70;;;;;;;10.55;100.00;96919.84;4911113;28;20492;-65
2023/06/15 02:00:12;;;;;;;8.83;8.07;;;;;;;10.53;100.00;96916.56;4936656;28;20709;-63
2023/06/15 02:02:41;;;;;;;7.43;6.93;;;;;;;10.56;100.00;96925.97;4884441;28;20354;-65
2023/06/15 02:05:10;;;;;;;7.33;6.83;;;;;;;10.50;100.00;96926.72;4935950;28;20211;-63
2023/06/15 02:07:38;;;;;;;8.17;7.47;;;;;;;10.48;100.00;96934.03;4921958;28;20222;-64
2023/06/15 02:10:06;;;;;;;8.13;7.47;;;;;;;10.43;100.00;96929.31;4911122;28;20296;-64
2023/06/15 02:12:34;;;;;;;7.73;7.13;;;;;;;10.42;100.00;96919.72;4909085;28;20305;-64
2023/06/15 02:15:02;;;;;;;8.57;7.87;;;;;;;10.41;100.00;96931.31;4934707;28;20213;-64
2023/06/15 02:17:31;;;;;;;8.10;7.50;;;;;;;10.41;100.00;96932.13;4882773;28;20233;-67
2023/06/15 02:20:00;;;;;;;8.57;7.87;;;;;;;10.41;100.00;96929.47;4929915;28;20218;-66
2023/06/15 02:22:28;;;;;;;8.70;7.80;;;;;;;10.46;100.00;96933.41;4926015;28;20219;-68
2023/06/15 02:24:55;;;;;;;8.00;7.40;;;;;;;10.54;100.00;96930.63;4929799;28;20206;-66
2023/06/15 02:27:23;;;;;;;8.20;7.50;;;;;;;10.50;100.00;96934.66;4914727;28;20779;-68
2023/06/15 02:29:51;;;;;;;8.60;8.00;;;;;;;10.57;100.00;96944.31;4905243;28;21525;-65
2023/06/15 02:32:34;;;;;;;8.37;7.67;;;;;;;10.62;100.00;96935.78;4915854;28;20199;-64
2023/06/15 02:35:05;;;;;;;8.13;7.43;;;;;;;10.76;100.00;96931.44;4928383;28;20207;-65
2023/06/15 02:37:33;;;;;;;9.00;8.23;;;;;;;10.84;100.00;96928.63;4922693;28;20282;-64
2023/06/15 02:40:01;;;;;;;8.17;7.53;;;;;;;10.89;100.00;96930.72;4930930;28;20230;-63
2023/06/15 02:42:30;;;;;;;8.20;7.60;;;;;;;10.90;100.00;96928.88;4915571;28;20297;-64
2023/06/15 02:44:58;;;;;;;8.27;7.57;;;;;;;10.86;100.00;96926.63;4911816;28;20302;-65
2023/06/15 02:47:26;;;;;;;8.07;7.47;;;;;;;10.86;100.00;96923.97;4926760;28;20227;-64
2023/06/15 02:49:53;;;;;;;9.40;8.80;;;;;;;10.86;100.00;96931.91;4883018;28;20801;-65
2023/06/15 02:52:22;;;;;;;9.00;8.27;;;;;;;10.76;100.00;96927.94;4932591;28;20669;-64
2023/06/15 02:54:50;;;;;;;9.30;8.50;;;;;;;10.81;100.00;96930.88;4927718;28;20902;-64
2023/06/15 02:57:17;;;;;;;8.43;7.83;;;;;;;10.72;100.00;96924.88;4916338;28;20303;-66
2023/06/15 02:59:46;;;;;;;8.07;7.47;;;;;;;10.68;100.00;96926.28;4906496;28;20334;-65
2023/06/15 03:02:14;;;;;;;8.73;8.03;;;;;;;10.57;100.00;96936.34;4932836;28;20266;-65
2023/06/15 03:04:47;;;;;;;8.83;8.23;;;;;;;10.52;100.00;96936.09;4872599;28;21458;-63
2023/06/15 03:07:16;;;;;;;8.70;8.07;;;;;;;10.47;100.00;96937.69;4933674;28;20744;-65
2023/06/15 03:09:47;;;;;;;9.00;8.40;;;;;;;10.44;100.00;96938.88;4925965;28;20848;-64
2023/06/15 03:12:15;;;;;;;8.60;7.87;;;;;;;10.40;100.00;96943.72;4892456;28;20940;-63
2023/06/15 03:14:44;;;;;;;9.20;8.57;;;;;;;10.38;100.00;96947.56;4930386;28;20219;-65
2023/06/15 03:17:12;;;;;;;9.43;8.80;;;;;;;10.30;100.00;96948.50;4902917;28;20332;-66
2023/06/15 03:19:41;;;;;;;8.67;8.07;;;;;;;10.19;100.00;96951.63;4932159;28;20203;-64
2023/06/15 03:22:09;;;;;;;8.83;8.13;;;;;;;10.14;100.00;96937.16;4879672;28;20219;-67
2023/06/15 03:24:39;;;;;;;9.50;8.80;;;;;;;10.09;100.00;96942.19;4926322;28;20976;-66
2023/06/15 03:27:10;;;;;;;8.63;7.97;;;;;;;10.04;100.00;96944.56;4930938;28;20203;-67
2023/06/15 03:29:38;;;;;;;9.93;9.23;;;;;;;10.05;100.00;96956.81;4923518;28;20238;-65
2023/06/15 03:32:07;;;;;;;10.07;9.27;;;;;;;10.09;100.00;96944.81;4909374;28;20210;-68
2023/06/15 03:34:37;;;;;;;9.47;8.67;;;;;;;10.08;100.00;96950.28;4922444;28;20566;-68
2023/06/15 03:37:05;;;;;;;8.97;8.27;;;;;;;10.05;100.00;96953.31;4874907;28;20389;-67
2023/06/15 03:39:33;;;;;;;8.80;8.20;;;;;;;10.07;100.00;96960.06;4931049;28;20211;-69
2023/06/15 03:42:00;;;;;;;9.17;8.47;;;;;;;10.14;100.00;96960.13;4891436;28;20291;-67
2023/06/15 03:44:29;;;;;;;8.10;7.60;;;;;;;10.19;100.00;96960.38;4919053;28;20665;-68
2023/06/15 03:46:57;;;;;;;10.10;9.30;;;;;;;10.27;100.00;96964.75;4907155;28;22097;-70
2023/06/15 03:49:25;;;;;;;9.70;8.90;;;;;;;10.29;100.00;96960.09;4928537;28;20220;-70
2023/06/15 03:51:52;;;;;;;8.97;8.30;;;;;;;10.42;100.00;96965.56;4878502;28;22240;-68
2023/06/15 03:54:20;;;;;;;8.87;8.27;;;;;;;10.51;100.00;96976.84;4926536;28;20706;-68
2023/06/15 03:56:49;;;;;;;10.10;9.33;;;;;;;10.66;100.00;96970.69;4890929;28;20484;-70
2023/06/15 03:59:17;;;;;;;9.53;8.77;;;;;;;10.76;100.00;96973.00;4917078;28;20325;-68
2023/06/15 04:01:46;;;;;;;10.03;9.10;;;;;;;10.94;100.00;96978.69;4925421;28;20277;-68
2023/06/15 04:04:14;;;;;;;9.43;8.70;;;;;;;11.10;100.00;96972.28;4907416;28;20234;-67
2023/06/15 04:06:46;;;;;;;9.43;8.67;;;;;;;11.26;100.00;96986.25;4885785;28;22726;-68
2023/06/15 04:09:14;;;;;;;9.43;8.73;;;;;;;11.34;100.00;96977.34;4932079;28;20262;-68
2023/06/15 04:11:42;;;;;;;9.97;9.00;;;;;;;11.54;100.00;96980.13;4924963;28;20210;-69
2023/06/15 04:14:10;;;;;;;9.37;8.50;;;;;;;11.74;100.00;96990.84;4919106;28;20218;-68
2023/06/15 04:16:37;;;;;;;9.03;8.33;;;;;;;11.87;100.00;96984.78;4928763;28;20286;-69
2023/06/15 04:19:07;;;;;;;9.23;8.53;;;;;;;12.01;100.00;96991.81;4906549;28;20227;-70
2023/06/15 04:21:36;;;;;;;9.27;8.43;;;;;;;12.13;100.00;96996.56;4923131;28;20665;-69
2023/06/15 04:24:05;;;;;;;8.83;8.23;;;;;;;12.24;100.00;96990.69;4885285;28;20273;-70
2023/06/15 04:26:33;;;;;;;9.30;8.70;;;;;;;12.32;100.00;96989.69;4928194;28;20588;-69
2023/06/15 04:29:01;;;;;;;8.60;8.00;;;;;;;12.51;100.00;96998.75;4916693;28;20795;-67
2023/06/15 04:31:30;;;;;;;8.73;8.07;;;;;;;12.62;100.00;97005.28;4931516;28;20290;-69
2023/06/15 04:33:59;;;;;;;8.97;8.27;;;;;;;12.80;100.00;97006.56;4924790;28;20522;-69
2023/06/15 04:36:31;;;;;;;8.53;7.93;;;;;;;12.95;100.00;97004.50;4906971;28;20234;-68
2023/06/15 04:39:00;;;;;;;8.83;8.13;;;;;;;13.25;100.00;97005.94;4878089;28;20945;-68
2023/06/15 04:41:29;;;;;;;8.30;7.63;;;;;;;13.28;100.00;96995.72;4929278;28;20397;-69
2023/06/15 04:43:57;;;;;;;8.37;7.77;;;;;;;13.40;100.00;96995.09;4912122;28;21293;-67
2023/06/15 04:46:25;;;;;;;8.53;8.00;;;;;;;13.47;100.00;97006.59;4933471;28;20615;-66
2023/06/15 04:48:52;;;;;;;8.90;8.20;;;;;;;13.65;100.00;97000.63;4930823;28;20421;-68
2023/06/15 04:51:20;;;;;;;8.13;7.63;;;;;;;13.77;100.00;96999.97;4905114;28;20250;-67
2023/06/15 04:53:49;;;;;;;7.73;7.20;;;;;;;13.92;100.00;97003.19;4920532;28;20231;-67
2023/06/15 04:56:17;;;;;;;8.23;7.53;;;;;;;13.88;100.00;97001.97;4880555;28;20313;-68
2023/06/15 04:58:44;;;;;;;8.00;7.40;;;;;;;13.88;100.00;97002.81;4930403;28;20842;-66
2023/06/15 05:01:12;;;;;;;8.17;7.57;;;;;;;13.94;100.00;97000.34;4915991;28;20301;-66
2023/06/15 05:03:40;;;;;;;8.10;7.47;;;;;;;13.96;100.00;97003.59;4928842;28;20235;-68
2023/06/15 05:06:08;;;;;;;8.67;7.87;;;;;;;13.92;100.00;97010.38;4897494;28;20222;-68
2023/06/15 05:08:37;;;;;;;8.70;8.10;;;;;;;13.95;100.00;97004.63;4925128;28;20415;-68
2023/06/15 05:11:06;;;;;;;8.67;8.03;;;;;;;14.02;100.00;97005.44;4884120;28;21223;-67
2023/06/15 05:13:34;;;;;;;8.60;8.00;;;;;;;13.96;100.00;97003.59;4933323;28;20237;-66
2023/06/15 05:16:01;;;;;;;8.43;7.87;;;;;;;14.19;100.00;97011.91;4905984;28;20217;-69
2023/06/15 05:18:29;;;;;;;7.73;7.23;;;;;;;14.30;100.00;97017.63;4930279;28;20893;-66
2023/06/15 05:20:57;;;;;;;8.67;8.07;;;;;;;14.36;100.00;97018.59;4929291;28;20680;-66
2023/06/15 05:23:24;;;;;;;7.87;7.37;;;;;;;14.38;100.00;97020.03;4907874;28;20215;-66
2023/06/15 05:25:52;;;;;;;8.27;7.53;;;;;;;14.46;100.00;97006.47;4883059;28;21052;-66
2023/06/15 05:28:21;;;;;;;8.27;7.67;;;;;;;14.55;100.00;97025.69;4936290;28;20270;-67
2023/06/15 05:30:49;;;;;;;8.10;7.40;;;;;;;14.57;100.00;97017.47;4915430;28;20230;-67
2023/06/15 05:33:17;;;;;;;8.83;8.13;;;;;;;14.77;100.00;97014.72;4929223;28;20211;-67
2023/06/15 05:35:45;;;;;;;9.00;8.17;;;;;;;14.73;100.00;97025.00;4933832;28;20514;-66
2023/06/15 05:38:13;;;;;;;8.00;7.40;;;;;;;14.90;100.00;97016.47;4879078;28;20330;-67
2023/06/15 05:40:41;;;;;;;8.20;7.67;;;;;;;14.93;100.00;97016.03;4931611;28;20285;-66
2023/06/15 05:43:08;;;;;;;8.60;7.90;;;;;;;15.15;100.00;97019.19;4883405;28;20222;-67
2023/06/15 05:45:37;;;;;;;8.93;8.20;;;;;;;15.18;100.00;97023.25;4937053;28;20293;-67
2023/06/15 05:48:07;;;;;;;8.20;7.60;;;;;;;15.31;100.00;97025.00;4916852;28;21711;-67
2023/06/15 05:50:35;;;;;;;7.83;7.33;;;;;;;15.41;100.00;97022.66;4929995;28;20305;-66
2023/06/15 05:53:03;;;;;;;8.00;7.40;;;;;;;15.46;100.00;97019.34;4904316;28;20247;-66
2023/06/15 05:55:31;;;;;;;8.37;7.73;;;;;;;15.49;100.00;97021.56;4930323;28;20814;-66
2023/06/15 05:57:58;;;;;;;8.80;8.17;;;;;;;15.48;100.00;97020.75;4885842;28;20242;-67
2023/06/15 06:00:30;;;;;;;8.13;7.53;;;;;;;15.47;100.00;97031.66;4932928;28;20317;-66
2023/06/15 06:02:59;;;;;;;8.23;7.63;;;;;;;15.57;100.00;97029.28;4917882;28;20218;-67
2023/06/15 06:05:27;;;;;;;9.40;8.67;;;;;;;15.68;100.00;97029.59;4928194;28;20864;-65
2023/06/15 06:07:55;;;;;;;8.50;7.77;;;;;;;15.69;100.00;97032.06;4905579;28;20928;-67
2023/06/15 06:10:22;;;;;;;7.63;7.03;;;;;;;15.78;100.00;97030.72;4927979;28;22060;-67
2023/06/15 06:12:50;;;;;;;8.13;7.33;;;;;;;15.89;100.00;97033.72;4933684;28;20210;-65
2023/06/15 06:15:17;;;;;;;7.70;7.20;;;;;;;16.04;100.00;97028.84;4882500;28;20215;-67
2023/06/15 06:17:46;;;;;;;8.30;7.70;;;;;;;16.29;100.00;97033.31;4934606;28;20239;-68
2023/06/15 06:20:35;;;;;;;7.53;6.93;;;;;;;16.38;100.00;97036.47;4918331;28;20357;-69
2023/06/15 06:23:04;;;;;;;7.67;7.07;;;;;;;16.31;100.00;97036.56;4923226;28;20897;-67
2023/06/15 06:25:32;;;;;;;8.00;7.50;;;;;;;16.30;100.00;97037.63;4917122;28;20270;-66
2023/06/15 06:27:59;;;;;;;7.53;7.03;;;;;;;16.39;100.00;97027.41;4926730;28;20849;-65
2023/06/15 06:30:27;;;;;;;8.40;7.80;;;;;;;16.41;100.00;97035.22;4899857;28;20226;-66
2023/06/15 06:32:55;;;;;;;7.87;7.27;;;;;;;16.55;100.00;97036.66;4933176;28;20276;-67
2023/06/15 06:35:26;;;;;;;7.77;7.27;;;;;;;16.74;100.00;97032.09;4910682;28;20218;-67
2023/06/15 06:37:55;;;;;;;8.10;7.53;;;;;;;16.79;100.00;97029.53;4931792;28;20235;-67
2023/06/15 06:40:25;;;;;;;7.40;6.73;;;;;;;17.10;100.00;97023.38;4901263;28;20439;-68
2023/06/15 06:42:53;;;;;;;7.10;6.60;;;;;;;17.30;100.00;97031.91;4934411;28;21066;-66
2023/06/15 06:45:21;;;;;;;7.37;6.80;;;;;;;17.53;100.00;97027.59;4886937;28;20438;-67
2023/06/15 06:47:48;;;;;;;7.53;6.93;;;;;;;17.76;100.00;97040.19;4930377;28;20325;-67
2023/06/15 06:50:16;;;;;;;6.80;6.27;;;;;;;17.81;94.49;97036.81;4916178;28;20233;-67
2023/06/15 06:52:44;;;;;;;8.73;8.13;;;;;;;17.80;98.63;97035.19;4925553;28;20357;-67
2023/06/15 06:55:13;;;;;;;6.60;6.20;;;;;;;17.98;95.00;97034.25;4904656;28;20706;-68
2023/06/15 06:57:40;;;;;;;6.30;5.80;;;;;;;18.04;90.57;97030.63;4930985;28;20220;-68
2023/06/15 07:00:10;;;;;;;6.23;5.83;;;;;;;18.10;85.92;97034.25;4882341;28;21175;-66
2023/06/15 07:02:38;;;;;;;6.03;5.63;;;;;;;18.19;80.55;97043.56;4934711;28;20457;-67
2023/06/15 07:05:06;;;;;;;6.80;5.90;;;;;;;18.13;78.03;97041.00;4913289;28;20222;-67
2023/06/15 07:07:33;;;;;;;6.80;6.03;;;;;;;18.28;75.23;97033.28;4927035;28;20430;-67
2023/06/15 07:10:01;;;;;;;6.40;5.90;;;;;;;18.32;78.00;97030.91;4907801;28;20219;-67
2023/06/15 07:12:30;;;;;;;6.50;5.90;;;;;;;18.40;73.75;97038.63;4928131;28;20403;-67
2023/06/15 07:14:57;;;;;;;6.63;6.13;;;;;;;18.46;78.93;97036.81;4885510;28;20219;-67
2023/06/15 07:17:25;;;;;;;5.87;5.37;;;;;;;18.45;76.12;97036.03;4933149;28;20510;-68
2023/06/15 07:19:53;;;;;;;6.63;6.23;;;;;;;18.62;75.25;97033.41;4914334;28;20226;-68
2023/06/15 07:22:21;;;;;;;5.50;5.20;;;;;;;18.76;70.77;97030.41;4928443;28;20401;-66
2023/06/15 07:24:48;;;;;;;6.10;5.70;;;;;;;18.97;74.63;97031.59;4905768;28;20317;-66
2023/06/15 07:27:16;;;;;;;7.90;6.67;;;;;;;18.97;84.49;97030.78;4928366;28;20235;-66
2023/06/15 07:29:45;;;;;;;6.50;6.10;;;;;;;18.96;82.08;97029.97;4934302;28;20646;-67
2023/06/15 07:32:14;;;;;;;6.77;6.23;;;;;;;18.99;74.68;97034.88;4880583;28;20487;-67
2023/06/15 07:34:41;;;;;;;6.30;5.80;;;;;;;19.17;72.85;97027.69;4931535;28;20571;-67
2023/06/15 07:37:09;;;;;;;6.27;5.77;;;;;;;19.26;71.58;97017.31;4912944;28;20265;-66
2023/06/15 07:39:37;;;;;;;6.57;6.17;;;;;;;19.42;69.16;97023.75;4924050;28;20211;-68
2023/06/15 07:42:06;;;;;;;6.97;5.33;;;;;;;19.17;67.93;97030.38;4909030;28;20318;-67
2023/06/15 07:44:35;;;;;;;5.40;5.00;;;;;;;19.31;71.02;97025.47;4932739;28;20594;-66
2023/06/15 07:47:06;;;;;;;5.67;5.27;;;;;;;19.29;62.64;97022.19;4877331;28;20313;-67
2023/06/15 07:49:34;;;;;;;6.43;5.83;;;;;;;19.32;70.78;97019.03;4934681;28;20905;-67
2023/06/15 07:52:13;;;;;;;6.03;5.53;;;;;;;19.48;65.71;97020.06;4911097;28;20227;-67
2023/06/15 07:54:41;;;;;;;5.53;5.13;;;;;;;19.55;63.06;97020.75;4926928;28;20199;-68
2023/06/15 07:57:09;;;;;;;5.07;4.77;;;;;;;19.54;62.19;97021.81;4904066;28;20219;-67
2023/06/15 07:59:38;;;;;;;6.00;5.50;;;;;;;19.64;63.51;97019.25;4932337;28;20191;-67
2023/06/15 08:02:08;;;;;;;4.90;4.50;;;;;;;19.37;61.52;97019.13;4885731;28;20305;-67
2023/06/15 08:04:36;;;;;;;5.40;4.90;;;;;;;19.50;60.85;97016.09;4929116;28;20208;-68
2023/06/15 08:07:04;;;;;;;4.73;4.43;;;;;;;19.63;57.81;97014.13;4911704;28;20282;-67
2023/06/15 08:09:32;;;;;;;5.20;4.80;;;;;;;19.56;58.70;97017.00;4923766;28;22586;-68
2023/06/15 08:12:00;;;;;;;5.50;5.00;;;;;;;19.54;58.19;97019.13;4906905;28;20222;-67
2023/06/15 08:14:27;;;;;;;5.93;5.40;;;;;;;19.56;58.76;97002.75;4931674;28;20434;-67
2023/06/15 08:16:55;;;;;;;6.03;5.63;;;;;;;19.61;57.52;97014.38;4888159;28;20691;-68
2023/06/15 08:19:24;;;;;;;5.70;5.30;;;;;;;19.59;57.53;97016.50;4926372;28;20836;-69
2023/06/15 08:21:51;;;;;;;5.40;5.10;;;;;;;19.64;57.68;97008.50;4916838;28;20250;-69
2023/06/15 08:24:19;;;;;;;6.40;5.90;;;;;;;19.78;61.44;97017.03;4922841;28;20223;-68
2023/06/15 08:26:48;;;;;;;5.80;5.30;;;;;;;19.75;60.86;97020.22;4911338;28;20812;-68
2023/06/15 08:29:16;;;;;;;6.00;5.60;;;;;;;19.64;63.77;97019.25;4928191;28;20617;-68
2023/06/15 08:31:51;;;;;;;6.00;5.60;;;;;;;19.60;64.12;97015.44;4932720;28;20256;-68
2023/06/15 08:34:19;;;;;;;6.93;6.33;;;;;;;19.77;60.53;97012.72;4882157;28;20219;-68
2023/06/15 08:36:49;;;;;;;10.67;9.00;;;;;;;19.86;63.94;97015.78;4918268;28;20222;-67
2023/06/15 08:39:17;;;;;;;6.87;6.30;;;;;;;19.76;60.74;97019.16;4921667;28;20326;-67
2023/06/15 08:41:46;;;;;;;7.03;6.40;;;;;;;19.54;61.62;97013.75;4907877;28;20820;-67
2023/06/15 08:44:14;;;;;;;6.00;5.63;;;;;;;19.59;64.71;97005.75;4928508;28;20225;-66
2023/06/15 08:46:43;;;;;;;7.00;6.40;;;;;;;19.88;65.03;97015.56;4933865;28;20243;-67
2023/06/15 08:49:10;;;;;;;6.80;6.30;;;;;;;19.85;61.29;97018.75;4882001;28;20237;-67
2023/06/15 08:51:38;;;;;;;6.30;5.90;;;;;;;19.89;61.39;97019.88;4930673;28;20223;-67
2023/06/15 08:54:09;;;;;;;6.57;6.13;;;;;;;19.86;62.25;97017.69;4914903;28;20294;-66
2023/06/15 08:56:38;;;;;;;6.80;6.30;;;;;;;19.97;59.41;97003.34;4907309;28;20215;-67
2023/06/15 08:59:07;;;;;;;7.30;6.63;;;;;;;20.25;60.29;97006.91;4933630;28;20223;-67
2023/06/15 09:01:39;;;;;;;6.97;6.47;;;;;;;20.02;61.89;97005.28;4933771;28;20726;-67
2023/06/15 09:04:08;;;;;;;7.47;6.03;;;;;;;19.72;62.61;97015.34;4888841;28;20215;-66
2023/06/15 09:06:36;;;;;;;6.63;5.73;;;;;;;19.63;63.38;97012.25;4933315;28;20207;-67
2023/06/15 09:09:04;;;;;;;7.33;6.63;;;;;;;19.73;64.05;97016.16;4914365;28;20603;-66
2023/06/15 09:11:40;;;;;;;6.40;6.00;;;;;;;19.93;62.03;97013.78;4931055;28;20215;-68
2023/06/15 09:14:11;;;;;;;6.53;6.03;;;;;;;20.03;61.20;97018.47;4913018;28;20324;-67
2023/06/15 09:16:40;;;;;;;7.20;6.70;;;;;;;20.71;58.25;97009.31;4935106;28;20203;-68
2023/06/15 09:19:11;;;;;;;6.33;5.87;;;;;;;21.12;54.95;97016.97;4905999;28;20246;-67
2023/06/15 09:21:41;;;;;;;7.60;7.00;;;;;;;21.04;57.13;97018.25;4920978;28;20919;-68
2023/06/15 09:24:09;;;;;;;6.63;6.17;;;;;;;20.93;56.90;97011.13;4914284;28;20752;-67
2023/06/15 09:26:41;;;;;;;6.43;5.97;;;;;;;21.28;56.74;97014.41;4933538;28;20211;-68
2023/06/15 09:29:11;;;;;;;6.63;5.97;;;;;;;21.68;54.06;97013.09;4930989;28;20261;-68
2023/06/15 09:31:40;;;;;;;6.40;5.87;;;;;;;21.80;53.04;97011.00;4936831;28;20263;-68
2023/06/15 09:34:09;;;;;;;5.97;5.43;;;;;;;21.68;50.68;97005.00;4926943;28;20345;-67
2023/06/15 09:36:40;;;;;;;6.57;6.07;;;;;;;21.72;48.23;97005.28;4884498;28;20214;-68
2023/06/15 09:39:10;;;;;;;5.33;4.83;;;;;;;21.61;47.56;96999.00;4914623;28;20726;-66
2023/06/15 09:41:52;;;;;;;5.30;5.00;;;;;;;21.92;47.72;97000.03;4910722;28;20210;-66
2023/06/15 09:44:21;;;;;;;5.63;5.23;;;;;;;22.20;48.92;96994.47;4931312;28;20416;-68
2023/06/15 09:46:50;;;;;;;6.23;5.63;;;;;;;22.25;49.15;96989.09;4932924;28;20218;-67
2023/06/15 09:49:22;;;;;;;5.50;5.10;;;;;;;22.45;46.16;96990.25;4924894;28;20215;-67
2023/06/15 09:51:50;;;;;;;5.63;5.13;;;;;;;22.40;44.39;96991.03;4888210;28;20287;-67
2023/06/15 09:54:20;;;;;;;5.43;5.13;;;;;;;21.98;46.29;96998.97;4914414;28;20325;-66
2023/06/15 09:56:50;;;;;;;5.67;5.17;;;;;;;22.21;44.75;96996.91;4910072;28;20298;-68
2023/06/15 09:59:20;;;;;;;5.90;5.50;;;;;;;22.38;48.31;96991.31;4929086;28;20203;-67
2023/06/15 10:01:49;;;;;;;5.90;5.50;;;;;;;22.37;48.54;96991.56;4934419;28;20211;-64
2023/06/15 10:04:19;;;;;;;5.70;5.17;;;;;;;22.31;48.05;96987.22;4920633;28;20207;-66
2023/06/15 10:06:50;;;;;;;5.70;5.30;;;;;;;22.30;49.49;96989.09;4891197;28;20215;-68
2023/06/15 10:09:22;;;;;;;5.83;5.33;;;;;;;22.07;48.04;96993.06;4927674;28;20322;-68
2023/06/15 10:11:51;;;;;;;6.03;5.53;;;;;;;21.76;49.50;96993.72;4896165;28;20210;-67
2023/06/15 10:14:25;;;;;;;6.40;6.00;;;;;;;21.57;50.48;96992.50;4930281;28;20317;-68
2023/06/15 10:16:58;;;;;;;5.00;4.60;;;;;;;20.98;46.89;96992.31;4933264;28;20299;-66
2023/06/15 10:19:26;;;;;;;5.43;5.03;;;;;;;20.90;47.16;96992.81;4923785;28;20713;-67
2023/06/15 10:21:54;;;;;;;5.90;5.40;;;;;;;20.98;49.08;96986.94;4931968;28;20705;-68
2023/06/15 10:24:24;;;;;;;5.10;4.80;;;;;;;21.48;49.30;96987.59;4882395;28;20339;-67
2023/06/15 10:26:52;;;;;;;6.23;5.83;;;;;;;21.61;48.76;96980.94;4918013;28;20289;-68
2023/06/15 10:29:23;;;;;;;5.40;5.10;;;;;;;21.86;46.43;96987.59;4919558;28;20329;-68
2023/06/15 10:32:00;;;;;;;5.10;4.80;;;;;;;21.95;47.83;96971.69;4935541;28;20217;-68
2023/06/15 10:34:32;;;;;;;5.30;5.00;;;;;;;21.97;45.75;96981.16;4925411;28;20394;-68
2023/06/15 10:37:08;;;;;;;5.53;5.13;;;;;;;22.20;46.45;96978.28;4933933;28;20229;-68
2023/06/15 10:39:37;;;;;;;5.53;5.20;;;;;;;21.98;44.51;96985.47;4882187;28;20229;-67
2023/06/15 10:42:07;;;;;;;5.27;4.97;;;;;;;21.40;44.59;96980.00;4906826;28;20234;-67
2023/06/15 10:44:37;;;;;;;5.00;4.67;;;;;;;20.99;45.68;96977.00;4927939;28;20542;-67
2023/06/15 10:47:06;;;;;;;7.43;5.60;;;;;;;21.23;48.76;96977.44;4935517;28;20611;-68
2023/06/15 10:49:34;;;;;;;5.57;5.17;;;;;;;21.62;44.23;96987.16;4926006;28;20458;-67
2023/06/15 10:52:03;;;;;;;4.33;4.13;;;;;;;22.03;44.92;96968.53;4933619;28;20266;-67
2023/06/15 10:54:31;;;;;;;5.13;4.83;;;;;;;22.40;43.98;96967.56;4878226;28;20450;-69
2023/06/15 10:57:00;;;;;;;5.00;4.70;;;;;;;22.84;42.87;96969.00;4913191;28;20383;-67
2023/06/15 10:59:42;;;;;;;5.30;5.00;;;;;;;22.91;43.40;96966.03;4910439;28;20932;-66
2023/06/15 11:02:47;;;;;;;4.93;4.63;;;;;;;23.04;40.68;96962.00;4933484;28;20233;-66
2023/06/15 11:05:19;;;;;;;4.80;4.43;;;;;;;23.15;40.76;96962.81;4928535;28;20202;-66
2023/06/15 11:07:50;;;;;;;4.60;4.40;;;;;;;23.24;39.39;96954.94;4931645;28;20281;-65
2023/06/15 11:10:20;;;;;;;4.63;4.23;;;;;;;22.79;40.65;96960.09;4880403;28;20250;-67
2023/06/15 11:12:59;;;;;;;4.97;4.67;;;;;;;22.58;42.10;96960.06;4913543;28;21120;-68
2023/06/15 11:15:34;;;;;;;5.37;5.07;;;;;;;22.23;43.03;96961.56;4920326;28;20320;-68
2023/06/15 11:18:03;;;;;;;5.30;4.97;;;;;;;21.79;44.01;96955.47;4931243;28;20278;-68
2023/06/15 11:20:42;;;;;;;4.73;4.43;;;;;;;21.93;44.36;96966.59;4928269;28;20316;-67
2023/06/15 11:23:12;;;;;;;4.97;4.67;;;;;;;21.88;44.10;96965.75;4930475;28;20199;-67
2023/06/15 11:25:43;;;;;;;4.90;4.60;;;;;;;22.17;44.27;96968.03;4881929;28;21012;-69
2023/06/15 11:28:11;;;;;;;5.17;4.77;;;;;;;22.35;43.58;96958.63;4917916;28;20309;-68
2023/06/15 11:31:00;;;;;;;5.17;4.87;;;;;;;22.23;41.44;96962.38;4912301;28;20230;-68
2023/06/15 11:33:28;;;;;;;4.73;4.43;;;;;;;22.38;43.44;96963.50;4929429;28;20414;-67
2023/06/15 11:35:57;;;;;;;4.77;4.37;;;;;;;22.45;41.21;96955.16;4929436;28;20211;-68
2023/06/15 11:38:29;;;;;;;4.80;4.40;;;;;;;23.05;41.37;96957.38;4924620;28;21535;-68